createdAt,value
2023-01-11T00:00:17.430Z,5.49
2023-01-11T00:02:45.772Z,5.50
2023-01-11T00:05:12.420Z,5.49
2023-01-11T00:07:40.864Z,5.50
2023-01-11T00:10:08.580Z,5.46
2023-01-11T00:12:34.896Z,5.46
2023-01-11T00:15:01.265Z,5.57
2023-01-11T00:17:29.023Z,5.59
2023-01-11T00:19:55.341Z,5.61
2023-01-11T00:22:22.211Z,5.62
2023-01-11T00:24:48.538Z,5.61
2023-01-11T00:27:14.972Z,5.59
2023-01-11T00:29:41.276Z,5.61
2023-01-11T00:32:07.912Z,5.65
2023-01-11T00:34:34.392Z,5.70
2023-01-11T00:37:00.903Z,5.78
2023-01-11T00:39:27.257Z,5.74
2023-01-11T00:42:12.333Z,5.71
2023-01-11T00:44:57.254Z,5.71
2023-01-11T00:47:42.155Z,5.79
2023-01-11T00:50:09.027Z,5.81
2023-01-11T00:52:35.339Z,5.80
2023-01-11T00:55:01.721Z,5.80
2023-01-11T00:57:28.067Z,5.87
2023-01-11T00:59:54.399Z,5.84
2023-01-11T01:02:22.464Z,5.80
2023-01-11T01:07:40.757Z,5.90
2023-01-11T01:10:08.479Z,5.89
2023-01-11T01:12:53.504Z,5.85
2023-01-11T01:15:20.586Z,5.86
2023-01-11T01:17:47.239Z,5.85
2023-01-11T01:20:14.854Z,5.92
2023-01-11T01:22:41.823Z,5.97
2023-01-11T01:25:08.624Z,5.94
2023-01-11T01:27:35.002Z,5.98
2023-01-11T01:30:01.314Z,5.94
2023-01-11T01:32:27.651Z,5.96
2023-01-11T01:34:53.948Z,5.98
2023-01-11T01:37:20.262Z,5.94
2023-01-11T01:39:46.557Z,6.00
2023-01-11T01:42:18.789Z,6.04
2023-01-11T01:45:03.033Z,5.98
2023-01-11T01:47:47.200Z,5.99
2023-01-11T01:50:32.009Z,5.96
2023-01-11T01:53:19.568Z,6.00
2023-01-11T01:55:51.866Z,6.01
2023-01-11T01:58:22.438Z,6.06
2023-01-11T02:00:48.793Z,6.03
2023-01-11T02:03:19.266Z,6.06
2023-01-11T02:05:45.881Z,6.08
2023-01-11T02:08:22.610Z,6.11
2023-01-11T02:10:50.489Z,6.14
2023-01-11T02:13:17.063Z,6.11
2023-01-11T02:15:43.411Z,6.19
2023-01-11T02:18:12.429Z,6.30
2023-01-11T02:20:54.092Z,6.21
2023-01-11T02:23:39.534Z,6.11
2023-01-11T02:26:36.868Z,6.17
2023-01-11T02:29:28.066Z,6.14
2023-01-11T02:32:10.433Z,6.16
2023-01-11T02:34:41.693Z,6.16
2023-01-11T02:37:22.853Z,6.14
2023-01-11T02:40:02.246Z,6.25
2023-01-11T02:43:09.846Z,6.28
2023-01-11T02:46:08.601Z,6.32
2023-01-11T02:48:43.623Z,6.34
2023-01-11T02:51:15.713Z,6.42
2023-01-11T02:54:01.334Z,6.37
2023-01-11T02:56:32.230Z,6.39
2023-01-11T02:59:00.895Z,6.41
2023-01-11T03:01:27.315Z,6.41
2023-01-11T03:03:54.454Z,6.44
2023-01-11T03:06:35.049Z,6.50
2023-01-11T03:09:19.683Z,6.46
2023-01-11T03:12:15.559Z,6.48
2023-01-11T03:14:59.969Z,6.48
2023-01-11T03:17:35.361Z,6.47
2023-01-11T03:20:10.728Z,6.48
2023-01-11T03:23:04.244Z,6.47
2023-01-11T03:25:53.051Z,6.49
2023-01-11T03:29:02.984Z,6.60
2023-01-11T03:31:33.647Z,6.54
2023-01-11T03:34:11.257Z,6.60
2023-01-11T03:36:43.140Z,6.45
2023-01-11T03:39:20.889Z,6.60
2023-01-11T03:41:50.979Z,6.62
2023-01-11T03:44:20.161Z,6.61
2023-01-11T03:46:50.389Z,6.63
2023-01-11T03:49:22.924Z,6.65
2023-01-11T03:51:50.828Z,6.62
2023-01-11T03:54:23.218Z,6.59
2023-01-11T03:56:55.845Z,6.61
2023-01-11T03:59:22.636Z,6.63
2023-01-11T04:01:49.009Z,6.66
2023-01-11T04:04:15.325Z,6.68
2023-01-11T04:06:41.746Z,6.63
2023-01-11T04:09:08.124Z,6.65
2023-01-11T04:11:34.419Z,6.67
2023-01-11T04:14:01.345Z,6.74
2023-01-11T04:16:27.814Z,6.70
2023-01-11T04:18:54.142Z,6.66
2023-01-11T04:21:20.475Z,6.63
2023-01-11T04:23:46.786Z,6.64
2023-01-11T04:26:13.183Z,6.58
2023-01-11T04:28:39.512Z,6.54
2023-01-11T04:31:05.853Z,6.52
2023-01-11T04:33:32.187Z,6.63
2023-01-11T04:35:58.527Z,6.67
2023-01-11T04:38:24.945Z,6.60
2023-01-11T04:41:11.409Z,6.67
2023-01-11T04:43:37.767Z,6.65
2023-01-11T04:46:04.342Z,6.67
2023-01-11T04:48:30.704Z,6.72
2023-01-11T04:50:56.980Z,6.73
2023-01-11T04:53:23.329Z,6.78
2023-01-11T04:55:49.674Z,6.79
2023-01-11T04:58:16.005Z,6.89
2023-01-11T05:00:42.385Z,6.96
2023-01-11T05:03:08.736Z,6.95
2023-01-11T05:05:35.122Z,7.00
2023-01-11T05:08:01.438Z,7.01
2023-01-11T05:10:27.755Z,6.97
2023-01-11T05:12:54.154Z,7.05
2023-01-11T05:15:20.530Z,7.07
2023-01-11T05:17:46.816Z,7.06
2023-01-11T05:20:13.522Z,7.14
2023-01-11T05:22:39.858Z,7.10
2023-01-11T05:25:06.621Z,7.10
2023-01-11T05:27:32.908Z,7.12
2023-01-11T05:29:59.274Z,7.16
2023-01-11T05:32:25.884Z,7.17
2023-01-11T05:34:52.248Z,7.14
2023-01-11T05:37:18.546Z,7.17
2023-01-11T05:39:44.818Z,7.23
2023-01-11T05:42:11.175Z,7.17
2023-01-11T05:44:58.041Z,7.20
2023-01-11T05:47:24.519Z,7.19
2023-01-11T05:49:50.849Z,7.21
2023-01-11T05:52:17.478Z,7.15
2023-01-11T05:54:43.811Z,7.13
2023-01-11T05:57:11.758Z,7.19
2023-01-11T05:59:38.165Z,7.11
2023-01-11T06:02:04.542Z,7.14
2023-01-11T06:04:30.844Z,7.11
2023-01-11T06:06:57.137Z,7.12
2023-01-11T06:09:23.467Z,7.07
2023-01-11T06:11:50.523Z,7.11
2023-01-11T06:14:16.879Z,7.11
2023-01-11T06:16:43.289Z,7.12
2023-01-11T06:19:11.267Z,7.19
2023-01-11T06:21:37.963Z,7.19
2023-01-11T06:24:04.581Z,7.18
2023-01-11T06:26:32.145Z,7.24
2023-01-11T06:28:58.521Z,7.23
2023-01-11T06:31:24.837Z,7.24
2023-01-11T06:33:51.292Z,7.25
2023-01-11T06:36:17.698Z,7.25
2023-01-11T06:38:44.634Z,7.27
2023-01-11T06:41:12.621Z,7.33
2023-01-11T06:43:41.460Z,7.29
2023-01-11T06:46:15.139Z,7.32
2023-01-11T06:48:42.912Z,7.26
2023-01-11T06:51:12.368Z,7.40
2023-01-11T06:53:40.455Z,7.36
2023-01-11T06:56:07.964Z,7.42
2023-01-11T06:58:34.284Z,7.43
2023-01-11T07:01:00.952Z,7.45
2023-01-11T07:03:27.439Z,7.44
2023-01-11T07:05:56.650Z,7.38
2023-01-11T07:08:26.820Z,7.42
2023-01-11T07:10:53.664Z,7.42
2023-01-11T07:13:20.353Z,7.39
2023-01-11T07:15:50.254Z,7.40
2023-01-11T07:18:18.229Z,7.45
2023-01-11T07:20:44.608Z,7.48
2023-01-11T07:23:11.127Z,7.47
2023-01-11T07:25:37.537Z,7.40
2023-01-11T07:28:06.451Z,7.40
2023-01-11T07:30:47.885Z,7.40
2023-01-11T07:33:21.538Z,7.37
2023-01-11T07:35:48.843Z,7.40
2023-01-11T07:38:15.256Z,7.40
2023-01-11T07:40:41.633Z,7.41
2023-01-11T07:43:14.362Z,7.41
2023-01-11T07:45:46.514Z,7.51
2023-01-11T07:48:14.972Z,7.47
2023-01-11T07:50:44.475Z,7.53
2023-01-11T07:53:12.434Z,7.54
2023-01-11T07:55:40.006Z,7.57
2023-01-11T07:58:08.419Z,7.59
2023-01-11T08:00:34.779Z,7.63
2023-01-11T08:03:02.289Z,7.60
2023-01-11T08:05:29.147Z,7.64
2023-01-11T08:07:55.639Z,7.65
2023-01-11T08:10:21.957Z,7.71
2023-01-11T08:13:07.516Z,7.69
2023-01-11T08:15:36.643Z,7.69
2023-01-11T08:18:05.638Z,7.71
2023-01-11T08:20:32.127Z,7.76
2023-01-11T08:23:03.294Z,7.74
2023-01-11T08:25:29.587Z,7.82
2023-01-11T08:27:55.905Z,7.78
2023-01-11T08:30:22.216Z,7.75
2023-01-11T08:32:48.591Z,7.75
2023-01-11T08:35:14.959Z,7.82
2023-01-11T08:37:41.291Z,7.79
2023-01-11T08:40:08.534Z,7.76
2023-01-11T08:42:35.158Z,7.82
2023-01-11T08:45:01.839Z,7.83
2023-01-11T08:47:28.215Z,7.78
2023-01-11T08:49:54.564Z,7.77
2023-01-11T08:52:21.182Z,7.81
2023-01-11T08:54:47.494Z,7.85
2023-01-11T08:57:13.924Z,7.74
2023-01-11T08:59:40.252Z,7.84
2023-01-11T09:02:06.573Z,7.85
2023-01-11T09:04:33.893Z,7.84
2023-01-11T09:07:01.253Z,7.83
2023-01-11T09:09:27.795Z,7.79
2023-01-11T09:11:55.213Z,7.81
2023-01-11T09:14:23.400Z,7.83
2023-01-11T09:16:50.851Z,7.87
2023-01-11T09:19:17.164Z,7.85
2023-01-11T09:21:45.443Z,7.87
2023-01-11T09:24:12.043Z,7.87
2023-01-11T09:26:38.540Z,7.89
2023-01-11T09:29:05.084Z,7.90
2023-01-11T09:31:31.530Z,7.87
2023-01-11T09:33:57.907Z,7.89
2023-01-11T09:36:26.542Z,7.90
2023-01-11T09:38:56.663Z,7.95
2023-01-11T09:41:34.478Z,8.00
2023-01-11T09:44:21.236Z,7.98
2023-01-11T09:46:52.211Z,7.93
2023-01-11T09:49:34.652Z,7.95
2023-01-11T09:52:19.895Z,7.96
2023-01-11T09:54:47.229Z,8.03
2023-01-11T09:57:30.869Z,8.04
2023-01-11T10:00:02.316Z,8.06
2023-01-11T10:02:59.900Z,8.04
2023-01-11T10:06:08.970Z,8.07
2023-01-11T10:18:25.676Z,8.10
2023-01-11T10:18:58.545Z,8.19
2023-01-11T10:21:49.384Z,8.16
2023-01-11T10:24:24.853Z,8.17
2023-01-11T10:26:52.868Z,8.19
2023-01-11T10:29:47.461Z,8.20
2023-01-11T10:32:55.980Z,8.22
2023-01-11T10:35:58.772Z,8.23
2023-01-11T10:38:54.903Z,8.26
2023-01-11T10:41:35.848Z,8.28
2023-01-11T10:44:12.865Z,8.33
2023-01-11T10:46:45.440Z,8.32
2023-01-11T10:49:30.287Z,8.36
2023-01-11T10:52:04.716Z,8.34
2023-01-11T10:54:33.208Z,8.37
2023-01-11T10:57:24.744Z,8.33
2023-01-11T11:00:10.833Z,8.36
2023-01-11T11:02:59.665Z,8.44
2023-01-11T11:05:35.222Z,8.48
2023-01-11T11:08:19.524Z,8.58
2023-01-11T11:10:54.750Z,8.56
2023-01-11T11:13:43.361Z,8.60
2023-01-11T11:16:20.502Z,8.71
2023-01-11T11:18:46.815Z,8.86
2023-01-11T11:21:26.365Z,8.92
2023-01-11T11:24:00.103Z,9.07
2023-01-11T11:26:32.874Z,9.15
2023-01-11T11:29:01.813Z,9.16
2023-01-11T11:31:30.417Z,9.14
2023-01-11T11:33:56.874Z,9.23
2023-01-11T11:36:24.720Z,9.22
2023-01-11T11:39:16.955Z,9.22
2023-01-11T11:41:56.162Z,9.23
2023-01-11T11:44:27.863Z,9.23
2023-01-11T11:47:13.883Z,9.27
2023-01-11T11:49:40.811Z,9.28
2023-01-11T11:52:12.161Z,9.33
2023-01-11T11:54:57.701Z,9.32
2023-01-11T11:57:28.540Z,9.34
2023-01-11T12:00:19.020Z,9.35
2023-01-11T12:02:50.748Z,9.41
2023-01-11T12:05:17.340Z,9.39
2023-01-11T12:07:54.790Z,9.43
2023-01-11T12:10:27.579Z,9.38
2023-01-11T12:12:59.002Z,9.37
2023-01-11T12:15:33.744Z,9.35
2023-01-11T12:18:38.355Z,9.35
2023-01-11T12:21:26.037Z,9.31
2023-01-11T12:24:12.658Z,9.42
2023-01-11T12:26:57.396Z,9.39
2023-01-11T12:29:39.428Z,9.37
2023-01-11T12:32:50.767Z,9.37
2023-01-11T12:35:29.997Z,9.39
2023-01-11T12:38:11.639Z,9.38
2023-01-11T12:41:01.688Z,9.38
2023-01-11T12:43:49.909Z,9.35
2023-01-11T12:46:25.511Z,9.37
2023-01-11T12:49:21.059Z,9.32
2023-01-11T12:52:06.073Z,9.37
2023-01-11T12:54:52.604Z,9.38
2023-01-11T12:57:38.568Z,9.39
2023-01-11T13:00:21.089Z,9.42
2023-01-11T13:02:56.404Z,9.38
2023-01-11T13:05:50.939Z,9.25
2023-01-11T13:08:32.562Z,9.23
2023-01-11T13:11:34.922Z,9.19
2023-01-11T13:14:14.526Z,9.12
2023-01-11T13:17:06.951Z,9.13
2023-01-11T13:19:46.140Z,9.11
2023-01-11T13:22:19.230Z,9.12
2023-01-11T13:24:51.046Z,9.12
2023-01-11T13:27:22.900Z,9.15
2023-01-11T13:29:54.950Z,9.19
2023-01-11T13:32:24.479Z,9.18
2023-01-11T13:35:09.404Z,9.23
2023-01-11T13:37:47.914Z,9.27
2023-01-11T13:40:41.989Z,9.24
2023-01-11T13:43:27.177Z,9.24
2023-01-11T13:46:11.932Z,9.36
2023-01-11T13:48:44.969Z,9.49
2023-01-11T13:51:27.202Z,9.31
2023-01-11T13:54:03.217Z,9.45
2023-01-11T13:56:41.943Z,9.51
2023-01-11T13:59:37.675Z,9.49
2023-01-11T14:02:23.145Z,9.43
2023-01-11T14:04:58.713Z,9.39
2023-01-11T14:08:02.786Z,9.44
2023-01-11T14:10:29.097Z,9.35
2023-01-11T14:13:44.997Z,9.37
2023-01-11T14:16:30.803Z,9.40
2023-01-11T14:19:14.003Z,9.31
2023-01-11T14:22:14.356Z,9.29
2023-01-11T14:24:56.394Z,9.25
2023-01-11T14:27:50.587Z,9.26
2023-01-11T14:30:50.407Z,9.22
2023-01-11T14:33:47.644Z,9.12
2023-01-11T14:36:51.193Z,9.12
2023-01-11T14:39:48.731Z,9.27
2023-01-11T14:42:38.178Z,9.33
2023-01-11T14:45:30.948Z,9.25
2023-01-11T14:48:29.824Z,9.14
2023-01-11T14:51:14.205Z,9.04
2023-01-11T14:54:04.486Z,8.89
2023-01-11T14:56:42.502Z,8.90
2023-01-11T14:59:24.079Z,8.89
2023-01-11T15:02:02.597Z,8.93
2023-01-11T15:04:33.439Z,8.96
2023-01-11T15:07:01.060Z,8.90
2023-01-11T15:09:47.233Z,8.93
2023-01-11T15:12:15.051Z,9.00
2023-01-11T15:14:48.222Z,8.93
2023-01-11T15:17:39.365Z,8.93
2023-01-11T15:20:08.670Z,8.87
2023-01-11T15:22:35.277Z,8.85
2023-01-11T15:25:05.498Z,8.78
2023-01-11T15:27:38.446Z,8.93
2023-01-11T15:30:27.365Z,8.97
2023-01-11T15:32:53.661Z,8.92
2023-01-11T15:35:23.068Z,9.00
2023-01-11T15:38:00.495Z,9.00
2023-01-11T15:40:30.509Z,8.90
2023-01-11T15:43:28.581Z,8.97
2023-01-11T15:46:39.511Z,8.86
2023-01-11T15:49:27.029Z,8.89
2023-01-11T15:52:52.120Z,8.81
2023-01-11T15:55:48.155Z,8.88
2023-01-11T15:58:21.822Z,8.79
2023-01-11T16:01:13.522Z,8.84
2023-01-11T16:04:10.325Z,8.92
2023-01-11T16:06:48.981Z,8.86
2023-01-11T16:09:43.015Z,8.81
2023-01-11T16:12:27.740Z,8.68
2023-01-11T16:15:27.463Z,8.63
2023-01-11T16:17:54.432Z,8.66
2023-01-11T16:20:20.719Z,8.68
2023-01-11T16:23:02.390Z,8.63
2023-01-11T16:25:32.632Z,8.62
2023-01-11T16:28:00.106Z,8.56
2023-01-11T16:30:28.229Z,8.48
2023-01-11T16:33:34.329Z,8.43
2023-01-11T16:36:12.387Z,8.49
2023-01-11T16:39:00.964Z,8.32
2023-01-11T16:41:35.119Z,8.32
2023-01-11T16:44:07.699Z,8.18
2023-01-11T16:46:46.220Z,8.06
2023-01-11T16:49:21.592Z,8.00
2023-01-11T16:51:49.357Z,7.96
2023-01-11T16:54:26.211Z,7.90
2023-01-11T16:56:53.783Z,7.88
2023-01-11T16:59:26.301Z,7.88
2023-01-11T17:01:54.266Z,7.85
2023-01-11T17:04:30.495Z,7.83
2023-01-11T17:07:11.004Z,7.86
2023-01-11T17:09:37.333Z,7.78
2023-01-11T17:12:06.170Z,7.71
2023-01-11T17:14:51.408Z,7.61
2023-01-11T17:17:17.995Z,7.61
2023-01-11T17:19:48.116Z,7.48
2023-01-11T17:22:29.194Z,7.51
2023-01-11T17:24:58.426Z,7.49
2023-01-11T17:27:30.761Z,7.41
2023-01-11T17:29:58.135Z,7.33
2023-01-11T17:32:33.817Z,7.38
2023-01-11T17:35:04.113Z,7.31
2023-01-11T17:37:30.949Z,7.30
2023-01-11T17:39:58.080Z,7.33
2023-01-11T17:42:43.401Z,7.31
2023-01-11T17:45:22.370Z,7.33
2023-01-11T17:47:54.109Z,7.31
2023-01-11T17:50:32.603Z,7.35
2023-01-11T17:53:22.396Z,7.31
2023-01-11T17:55:57.733Z,7.32
2023-01-11T17:58:31.763Z,7.27
2023-01-11T18:01:04.513Z,7.40
2023-01-11T18:03:38.557Z,7.35
2023-01-11T18:06:19.303Z,7.35
2023-01-11T18:08:54.489Z,7.23
2023-01-11T18:11:26.644Z,7.24
2023-01-11T18:13:55.219Z,7.16
2023-01-11T18:16:22.427Z,7.15
2023-01-11T18:18:50.996Z,7.11
2023-01-11T18:21:26.548Z,7.10
2023-01-11T18:24:11.407Z,7.03
2023-01-11T18:26:40.106Z,6.93
2023-01-11T18:29:17.702Z,6.95
2023-01-11T18:31:44.048Z,6.86
2023-01-11T18:34:10.387Z,6.76
2023-01-11T18:36:37.164Z,6.79
2023-01-11T18:39:10.143Z,6.78
2023-01-11T18:41:55.821Z,6.85
2023-01-11T18:44:22.171Z,6.83
2023-01-11T18:46:48.470Z,6.83
2023-01-11T18:49:14.772Z,6.93
2023-01-11T18:51:41.589Z,6.88
2023-01-11T18:54:15.649Z,6.91
2023-01-11T18:56:41.935Z,6.85
2023-01-11T18:59:08.221Z,6.86
2023-01-11T19:01:46.894Z,6.91
2023-01-11T19:04:20.450Z,6.88
2023-01-11T19:06:46.862Z,6.88
2023-01-11T19:09:13.191Z,6.86
2023-01-11T19:11:39.532Z,6.86
2023-01-11T19:14:05.898Z,6.81
2023-01-11T19:16:32.265Z,6.69
2023-01-11T19:18:58.856Z,6.63
2023-01-11T19:21:25.204Z,6.62
2023-01-11T19:23:51.654Z,6.70
2023-01-11T19:26:18.031Z,6.79
2023-01-11T19:28:44.376Z,6.73
2023-01-11T19:31:13.679Z,6.72
2023-01-11T19:33:41.395Z,6.74
2023-01-11T19:36:08.449Z,6.76
2023-01-11T19:38:35.580Z,6.79
2023-01-11T19:41:07.943Z,6.84
2023-01-11T19:43:34.569Z,6.88
2023-01-11T19:46:02.152Z,6.95
2023-01-11T19:48:30.459Z,6.78
2023-01-11T19:51:07.618Z,6.76
2023-01-11T19:53:34.565Z,6.88
2023-01-11T19:56:03.001Z,6.97
2023-01-11T19:58:29.707Z,6.86
2023-01-11T20:00:56.074Z,6.89
2023-01-11T20:03:22.802Z,6.78
2023-01-11T20:05:49.701Z,6.69
2023-01-11T20:08:17.015Z,6.81
2023-01-11T20:10:43.449Z,6.75
2023-01-11T20:13:09.766Z,6.69
2023-01-11T20:15:36.878Z,6.68
2023-01-11T20:18:03.622Z,6.65
2023-01-11T20:20:30.020Z,6.67
2023-01-11T20:22:56.303Z,6.60
2023-01-11T20:25:22.655Z,6.54
2023-01-11T20:27:49.159Z,6.42
2023-01-11T20:30:15.868Z,6.35
2023-01-11T20:32:42.641Z,6.28
2023-01-11T20:35:10.375Z,6.19
2023-01-11T20:37:36.701Z,6.26
2023-01-11T20:40:03.406Z,6.19
2023-01-11T20:42:30.955Z,6.12
2023-01-11T20:44:57.299Z,6.08
2023-01-11T20:47:23.631Z,6.11
2023-01-11T20:49:49.918Z,6.11
2023-01-11T20:52:16.253Z,6.11
2023-01-11T20:54:42.643Z,5.99
2023-01-11T20:57:12.190Z,5.98
2023-01-11T20:59:38.591Z,5.99
2023-01-11T21:02:07.249Z,5.90
2023-01-11T21:04:33.597Z,5.98
2023-01-11T21:06:59.888Z,5.98
2023-01-11T21:09:26.224Z,5.97
2023-01-11T21:11:53.792Z,5.98
2023-01-11T21:14:23.936Z,5.96
2023-01-11T21:16:50.415Z,5.86
2023-01-11T21:19:16.847Z,5.86
2023-01-11T21:21:43.217Z,5.84
2023-01-11T21:24:14.282Z,5.81
2023-01-11T21:26:42.277Z,5.86
2023-01-11T21:29:11.334Z,5.88
2023-01-11T21:31:38.315Z,5.89
2023-01-11T21:34:05.167Z,5.94
2023-01-11T21:36:32.072Z,5.99
2023-01-11T21:38:59.800Z,5.97
2023-01-11T21:41:47.607Z,6.02
2023-01-11T21:44:15.075Z,6.09
2023-01-11T21:46:42.095Z,6.08
2023-01-11T21:49:09.439Z,6.06
2023-01-11T21:51:36.089Z,5.95
2023-01-11T21:54:08.006Z,5.94
2023-01-11T21:56:34.919Z,5.85
2023-01-11T21:59:01.703Z,5.78
2023-01-11T22:01:28.251Z,5.73
2023-01-11T22:03:54.739Z,5.86
2023-01-11T22:06:21.868Z,5.78
2023-01-11T22:08:48.155Z,5.75
2023-01-11T22:11:16.000Z,5.68
2023-01-11T22:13:42.676Z,5.77
2023-01-11T22:16:14.851Z,5.71
2023-01-11T22:18:41.779Z,5.69
2023-01-11T22:21:19.027Z,5.79
2023-01-11T22:23:46.889Z,5.81
2023-01-11T22:26:18.070Z,5.77
2023-01-11T22:29:05.107Z,5.81
2023-01-11T22:31:33.058Z,5.86
2023-01-11T22:34:00.299Z,5.86
2023-01-11T22:36:28.054Z,5.89
2023-01-11T22:38:54.832Z,5.97
2023-01-11T22:41:21.662Z,5.98
2023-01-11T22:43:49.510Z,6.05
2023-01-11T22:46:18.831Z,6.10
2023-01-11T22:48:47.032Z,6.15
2023-01-11T22:51:14.606Z,6.25
2023-01-11T22:53:43.575Z,6.38
2023-01-11T22:56:11.219Z,6.37
2023-01-11T22:58:37.661Z,6.52
2023-01-11T23:01:11.448Z,6.57
2023-01-11T23:03:39.021Z,6.54
2023-01-11T23:06:05.877Z,6.61
2023-01-11T23:08:40.778Z,6.72
2023-01-11T23:11:35.641Z,6.79
2023-01-11T23:14:06.939Z,6.87
2023-01-11T23:16:34.125Z,6.98
2023-01-11T23:19:01.152Z,6.97
2023-01-11T23:21:27.988Z,7.08
2023-01-11T23:23:54.628Z,7.13
2023-01-11T23:26:22.064Z,7.04
2023-01-11T23:28:49.586Z,6.99
2023-01-11T23:31:21.770Z,7.07
2023-01-11T23:33:56.402Z,7.11
2023-01-11T23:36:26.418Z,7.13
2023-01-11T23:38:52.717Z,7.12
2023-01-11T23:41:39.150Z,7.14
2023-01-11T23:44:11.424Z,7.09
2023-01-11T23:46:57.438Z,7.10
2023-01-11T23:49:25.127Z,7.18
2023-01-11T23:51:51.931Z,7.12
2023-01-11T23:54:18.335Z,7.12
2023-01-11T23:56:44.660Z,7.19
2023-01-11T23:59:11.462Z,7.13
